NCAR-RAP Real-Time Weather Data

Output produced by METARs form (23 June 2018  19:33 UTC)
found at http://weather.rap.ucar.edu/surface/
 
RJFU 231200Z 30003KT 9999 FEW010 SCT020 BKN030 20/19 Q1005
RJFU 231100Z 29002KT 9999 FEW010 SCT020 BKN030 20/20 Q1005
RJFU 231000Z VRB01KT 9999 FEW005 SCT020 BKN030 21/19 Q1005
RJFU 230900Z 20003KT 9999 -SHRA FEW005 SCT015 BKN020 21/19 Q1004
RJFU 230800Z 26003KT 6000 -SHRA FEW010 BKN020 BKN025 21/20 Q1004
RJFU 230700Z 33004KT 290V010 9999 FEW008 SCT015 BKN025 21/19 Q1004
RJFU 230621Z 02005KT 6000 R32/1200VP1800U -RA FEW008 SCT020 BKN035 21/19 Q1003 RMK 1ST008 3CU020 7SC035 A2964 P/FR
RJFU 230614Z 36005KT 4000 -RA BR FEW010 SCT025 BKN035 21/19 Q1004 RMK 1CU010 3CU025 7SC035 A2966
RJFU 230600Z 32003KT 250V020 9999 -RA FEW010 SCT025 BKN035 21/19 Q1005
RJFU 230500Z 32007KT 280V360 9999 FEW010 BKN035 22/19 Q1004
RJFU 230400Z 30008KT 9999 FEW015 BKN045 21/19 Q1005
RJFU 230300Z 33009KT 9999 -RA FEW015 BKN050 22/19 Q1005
RJFU 230200Z 35005KT 9999 FEW015 BKN035 BKN060 22/18 Q1005
RJFU 230100Z VRB02KT 9999 FEW010 BKN050 BKN080 21/18 Q1005
RJFU 230000Z 05005KT 020V080 9999 -RA FEW006 BKN050 BKN070 20/18 Q1005
RJFU 222300Z 02003KT 340V060 9999 -RA FEW006 SCT015 BKN050 21/20 Q1005
RJFU 222243Z 29006KT 7000 RA FEW006 SCT015 BKN045 21/20 Q1006 RMK 1ST006 3CU015 6SC045 A2972
RJFU 222200Z 04006KT 9999 -RA FEW005 SCT050 BKN080 21/19 Q1004
RJFU 222129Z 33010KT 6000 -SHRA FEW005 SCT010 BKN020 21/20 Q1005 RMK 1ST005 3CU010 5CU020 A2969
RJFU 222110Z 32011KT 3500 -SHRA BR FEW003 SCT006 BKN015 21/20 Q1005 RMK 1ST003 3ST006 5CU015 A2968
RJFU 221200Z 30003KT 9999 FEW045 BKN/// 24/20 Q1007
RJFU 221100Z 32006KT 9999 FEW030 BKN/// 25/20 Q1007
RJFU 221000Z 33008KT 9999 FEW050 BKN/// 25/20 Q1007
RJFU 220900Z 31010KT CAVOK 26/20 Q1006
RJFU 220800Z 32010KT CAVOK 27/18 Q1006
RJFU 220700Z 35008KT CAVOK 27/20 Q1006
RJFU 220600Z 31006KT 260V350 9999 FEW030 BKN/// 31/15 Q1007
RJFU 220500Z 35004KT 270V040 9999 FEW030 BKN/// 29/16 Q1007
RJFU 220400Z 29006KT 260V350 9999 FEW040 BKN/// 28/17 Q1007
RJFU 220300Z 28006KT 240V310 9999 FEW040 BKN/// 28/18 Q1007
RJFU 220200Z 20003KT 170V260 9999 FEW040 BKN/// 27/20 Q1008
RJFU 220100Z VRB01KT 9999 FEW035 BKN/// 26/21 Q1008
RJFU 220000Z VRB02KT 9999 FEW025 BKN/// 24/20 Q1009
RJFU 212300Z 01003KT 9999 FEW010 BKN/// 22/19 Q1009
RJFU 212200Z 09003KT 9999 FEW008 BKN/// 21/19 Q1009
RJFU 212110Z 07004KT 9999 FEW008 BKN/// 20/18 Q1009 RMK 1ST008 A2980
RJFU 211200Z VRB02KT 9999 FEW040 22/20 Q1008
RJFU 211100Z 25007KT 9999 FEW030 23/20 Q1007
RJFU 211000Z 25008KT 9999 FEW040 SCT/// 25/19 Q1007
RJFU 210900Z 25010KT 9999 FEW035 BKN/// 26/20 Q1007
RJFU 210800Z 25011KT 9999 FEW035 BKN/// 26/20 Q1006